Time;durP1;ratioP1;P1;durP2;ratioP2;P2;SDS_P1;SDS_P2;PMS_P1;PMS_P2;Temp;Humidity;BMP_temperature;BMP_pressure;BME280_temperature;BME280_humidity;BME280_pressure;Samples;Min_cycle;Max_cycle;Signal;HPM_P1;HPM_P2
2022/12/21 00:01:35;;;;;;;;;;;1.00;87.20;;;-151.14;100.00;62537.16;5036208;28;19925;-79
2022/12/21 00:04:04;;;;;;;;;;;1.00;87.30;;;-151.14;100.00;62537.16;5019491;28;19921;-79
2022/12/21 00:06:34;;;;;;;;;;;1.00;87.20;;;-151.14;100.00;62537.16;5053741;28;20212;-79
2022/12/21 00:09:03;;;;;;;;;;;1.00;87.40;;;-151.14;100.00;62537.16;5019652;28;19927;-79
2022/12/21 00:11:31;;;;;;;;;;;1.00;87.30;;;-0.41;100.00;62537.16;5036288;28;20250;-79
2022/12/21 00:14:00;;;;;;;;;;;1.00;87.30;;;-0.41;100.00;62537.16;5019483;28;19921;-79
2022/12/21 00:16:29;;;;;;;;;;;1.00;87.30;;;-0.41;100.00;62537.16;5035593;28;19943;-79
2022/12/21 00:18:58;;;;;;;;;;;1.00;87.40;;;-151.14;100.00;62537.16;5036171;28;19921;-79
2022/12/21 00:21:28;;;;;;;;;;;1.00;87.40;;;-0.41;100.00;62537.16;5053749;28;20205;-79
2022/12/21 00:23:58;;;;;;;;;;;1.00;87.50;;;-0.42;100.00;62537.16;5035712;28;19921;-79
2022/12/21 00:26:27;;;;;;;;;;;1.00;87.50;;;-151.14;100.00;62537.16;5019156;28;19921;-79
2022/12/21 00:28:55;;;;;;;;;;;1.00;87.40;;;-151.14;100.00;62537.16;5035955;28;19920;-79
2022/12/21 00:31:24;;;;;;;;;;;1.00;87.40;;;-0.41;100.00;62537.16;5019411;28;20120;-79
2022/12/21 00:33:54;;;;;;;;;;;1.00;87.50;;;-151.14;100.00;62537.16;5035354;28;19920;-79
2022/12/21 00:36:23;;;;;;;;;;;1.00;87.50;;;18.12;100.00;62537.16;5019117;28;19921;-78
2022/12/21 00:38:52;;;;;;;;;;;1.00;87.50;;;-151.14;100.00;62537.16;5035885;28;19927;-79
2022/12/21 00:41:21;;;;;;;;;;;1.00;87.50;;;-0.41;100.00;62537.16;5018461;28;20209;-79
2022/12/21 00:43:50;;;;;;;;;;;1.00;87.50;;;-151.14;100.00;62537.16;5053099;28;19920;-79
2022/12/21 00:46:19;;;;;;;;;;;1.00;87.50;;;-0.43;100.00;62537.16;5035236;28;20094;-79
2022/12/21 00:48:47;;;;;;;;;;;1.00;87.30;;;-0.43;100.00;62537.16;5019164;28;19921;-79
2022/12/21 00:51:15;;;;;;;;;;;1.00;87.40;;;-0.44;100.00;62537.16;5035658;28;19921;-79
2022/12/21 00:53:43;;;;;;;;;;;1.00;87.50;;;-151.14;100.00;62537.16;5052975;28;19921;-79
2022/12/21 00:56:13;;;;;;;;;;;1.00;87.50;;;-0.43;100.00;62537.16;5035246;28;19921;-79
2022/12/21 00:58:41;;;;;;;;;;;1.00;87.50;;;-151.14;100.00;62537.16;5035414;28;19921;-79
2022/12/21 01:01:12;;;;;;;;;;;1.00;87.50;;;-151.14;100.00;62537.16;5019023;28;19921;-79
2022/12/21 01:03:40;;;;;;;;;;;1.00;87.50;;;-0.44;100.00;62537.16;5035228;28;19920;-79
2022/12/21 01:06:09;;;;;;;;;;;1.00;87.50;;;-151.14;100.00;62537.16;5034914;28;19921;-79
2022/12/21 01:08:38;;;;;;;;;;;1.00;87.50;;;-151.14;100.00;62537.16;5035385;28;20209;-79
2022/12/21 01:11:06;;;;;;;;;;;1.00;87.50;;;-151.14;100.00;62537.16;5018768;28;20122;-79
2022/12/21 01:13:36;;;;;;;;;;;1.00;87.50;;;-151.14;100.00;62537.16;5035213;28;19921;-79
2022/12/21 01:16:06;;;;;;;;;;;1.00;87.50;;;-151.14;100.00;62537.16;5034872;28;19929;-79
2022/12/21 01:18:37;;;;;;;;;;;1.00;87.50;;;-151.14;100.00;62537.16;5034980;28;20220;-79
2022/12/21 01:21:12;;;;;;;;;;;1.00;87.50;;;-151.14;100.00;62537.16;5035204;28;19921;-79
2022/12/21 01:23:40;;;;;;;;;;;1.00;87.50;;;-151.14;100.00;62537.16;5030239;28;19936;-79
2022/12/21 01:26:10;;;;;;;;;;;1.00;87.60;;;-151.14;100.00;62537.16;4998834;28;19928;-79
2022/12/21 01:28:40;;;;;;;;;;;1.00;87.50;;;-151.14;100.00;62537.16;4998770;28;19921;-79
2022/12/21 01:31:08;;;;;;;;;;;1.00;87.40;;;-151.14;100.00;62537.16;5015172;28;19940;-79
2022/12/21 01:33:36;;;;;;;;;;;1.00;87.40;;;-151.14;100.00;62537.16;5015116;28;19928;-79
2022/12/21 01:36:05;;;;;;;;;;;1.00;87.50;;;-151.14;100.00;62537.16;4998591;28;19921;-79
2022/12/21 01:38:33;;;;;;;;;;;1.00;87.50;;;-151.14;100.00;62537.16;5032645;28;20113;-79
2022/12/21 01:41:01;;;;;;;;;;;1.00;87.50;;;-151.14;100.00;62537.16;5015166;28;19922;-79
2022/12/21 01:43:47;;;;;;;;;;;1.00;87.40;;;-0.46;100.00;62537.16;5014981;28;19921;-79
2022/12/21 01:46:18;;;;;;;;;;;1.00;87.30;;;-151.14;100.00;62537.16;5014742;28;19921;-79
2022/12/21 01:48:52;;;;;;;;;;;1.00;87.40;;;-151.14;100.00;62537.16;4998683;28;19925;-79
2022/12/21 01:51:19;;;;;;;;;;;1.00;87.50;;;-151.14;100.00;62537.16;5031378;28;20234;-79
2022/12/21 01:53:49;;;;;;;;;;;1.00;87.50;;;-151.14;100.00;62537.16;5014381;28;20116;-79
2022/12/21 01:56:19;;;;;;;;;;;1.00;87.50;;;-151.14;100.00;62537.16;5014511;28;19921;-79
2022/12/21 01:58:48;;;;;;;;;;;1.00;87.50;;;-151.14;100.00;62537.16;5014828;28;20116;-79
2022/12/21 02:01:16;;;;;;;;;;;1.00;87.50;;;-151.14;100.00;62537.16;5014917;28;20201;-79
2022/12/21 02:03:47;;;;;;;;;;;1.00;87.50;;;-151.14;100.00;62537.16;5030859;28;19921;-79
2022/12/21 02:06:18;;;;;;;;;;;1.00;87.60;;;-151.14;100.00;62537.16;5014304;28;19921;-79
2022/12/21 02:08:46;;;;;;;;;;;1.00;87.50;;;-151.14;100.00;62537.16;5014604;28;20213;-79
2022/12/21 02:11:14;;;;;;;;;;;1.00;87.60;;;-151.14;100.00;62537.16;5014895;28;19921;-79
2022/12/21 02:13:42;;;;;;;;;;;1.00;87.50;;;-151.14;100.00;62537.16;5014474;28;20201;-79
2022/12/21 02:16:25;;;;;;;;;;;0.90;87.50;;;-151.14;100.00;62537.16;5014420;28;19921;-79
2022/12/21 02:19:20;;;;;;;;;;;0.90;87.60;;;-151.14;100.00;62537.16;5014425;28;19928;-79
2022/12/21 02:21:50;;;;;;;;;;;1.00;87.60;;;-151.14;100.00;62537.16;4998102;28;19928;-79
2022/12/21 02:24:50;;;;;;;;;;;0.90;87.50;;;-151.14;100.00;62537.16;5031932;28;19921;-79
2022/12/21 02:27:48;;;;;;;;;;;0.90;87.60;;;18.12;100.00;62537.16;4997979;28;19928;-79
2022/12/21 02:30:17;;;;;;;;;;;0.90;87.40;;;-151.14;100.00;62537.16;5014381;28;19921;-79
2022/12/21 02:32:56;;;;;;;;;;;0.90;87.50;;;-151.14;100.00;62537.16;5014147;28;19925;-79
2022/12/21 02:35:33;;;;;;;;;;;0.90;87.50;;;-151.14;100.00;62537.16;5013816;28;19927;-79
2022/12/21 02:38:04;;;;;;;;;;;0.90;87.60;;;-0.50;100.00;62537.16;4997724;28;19923;-79
2022/12/21 02:40:37;;;;;;;;;;;0.90;87.60;;;-0.51;100.00;62537.16;5014426;28;19927;-79
2022/12/21 02:45:56;;;;;;;;;;;0.90;87.60;;;-151.14;100.00;62537.16;5013883;28;19921;-79
2022/12/21 02:48:27;;;;;;;;;;;0.90;87.50;;;-151.14;100.00;62537.16;5031829;28;19927;-80
2022/12/21 02:50:58;;;;;;;;;;;0.90;87.50;;;18.12;100.00;62537.16;5030522;28;19921;-79
2022/12/21 02:53:29;;;;;;;;;;;0.90;87.50;;;-151.14;100.00;62537.16;5031450;28;19928;-80
2022/12/21 02:55:58;;;;;;;;;;;0.90;87.50;;;-151.14;100.00;62537.16;5008944;28;19927;-80
2022/12/21 02:58:26;;;;;;;;;;;0.90;87.60;;;-151.14;100.00;62537.16;5017262;28;19927;-80
2022/12/21 03:01:06;;;;;;;;;;;0.90;87.60;;;-151.14;100.00;62537.16;5033775;28;19928;-81
2022/12/21 03:03:51;;;;;;;;;;;0.90;87.60;;;-0.52;100.00;62537.16;5033521;28;19921;-80
2022/12/21 03:06:32;;;;;;;;;;;0.90;87.50;;;-0.53;100.00;62537.16;5033223;28;19935;-80
2022/12/21 03:09:10;;;;;;;;;;;0.90;87.60;;;-151.14;100.00;62537.16;5017023;28;19921;-80
2022/12/21 03:11:42;;;;;;;;;;;0.90;87.50;;;-151.14;100.00;62537.16;5033570;28;19921;-80
2022/12/21 03:14:12;;;;;;;;;;;0.90;87.60;;;-0.54;100.00;62537.16;5033396;28;19920;-79
2022/12/21 03:16:47;;;;;;;;;;;0.90;87.50;;;-151.14;100.00;62537.16;5033120;28;20238;-80
2022/12/21 03:19:19;;;;;;;;;;;0.90;87.60;;;-151.14;100.00;62537.16;5016620;28;20213;-79
2022/12/21 03:21:48;;;;;;;;;;;0.90;87.50;;;-151.14;100.00;62537.16;5032767;28;20234;-80
2022/12/21 03:24:20;;;;;;;;;;;0.90;87.50;;;-151.14;100.00;62537.16;5050549;28;19927;-79
2022/12/21 03:26:50;;;;;;;;;;;0.90;87.60;;;-151.14;100.00;62537.16;5049566;28;19921;-80
2022/12/21 03:29:19;;;;;;;;;;;0.90;87.50;;;-151.14;100.00;62537.16;5050848;28;19935;-80
2022/12/21 03:31:49;;;;;;;;;;;0.90;87.60;;;-151.14;100.00;62537.16;5033082;28;19921;-80
2022/12/21 03:34:20;;;;;;;;;;;0.90;87.70;;;-0.57;100.00;62537.16;5016626;28;20242;-80
2022/12/21 03:36:50;;;;;;;;;;;0.90;87.60;;;-151.14;100.00;62537.16;5033089;28;19921;-80
2022/12/21 03:39:20;;;;;;;;;;;0.90;87.50;;;-0.57;100.00;62537.16;5051234;28;20107;-79
2022/12/21 03:41:50;;;;;;;;;;;0.90;87.60;;;-0.57;100.00;62537.16;5016665;28;19921;-80
2022/12/21 03:44:19;;;;;;;;;;;0.90;87.60;;;-151.14;100.00;62537.16;5033094;28;20220;-79
2022/12/21 03:46:49;;;;;;;;;;;0.90;87.60;;;-151.14;100.00;62537.16;5032643;28;19924;-80
2022/12/21 03:49:21;;;;;;;;;;;0.90;87.50;;;-151.14;100.00;62537.16;5049407;28;20216;-80
2022/12/21 03:51:50;;;;;;;;;;;0.90;87.60;;;-151.14;100.00;62537.16;5050769;28;19921;-80
2022/12/21 03:54:21;;;;;;;;;;;0.90;87.70;;;-0.58;100.00;62537.16;5016337;28;19920;-80
2022/12/21 03:56:49;;;;;;;;;;;0.90;87.60;;;-151.14;100.00;62537.16;5032716;28;19920;-80
2022/12/21 03:59:17;;;;;;;;;;;0.90;87.50;;;-151.14;100.00;62537.16;5032901;28;19921;-80
2022/12/21 04:01:49;;;;;;;;;;;0.90;87.60;;;-151.14;100.00;62537.16;5032868;28;19927;-80
2022/12/21 04:04:22;;;;;;;;;;;0.80;87.50;;;-151.14;100.00;62537.16;5032917;28;19921;-80
2022/12/21 04:06:50;;;;;;;;;;;0.80;87.60;;;-151.14;100.00;62537.16;5032545;28;20227;-80
2022/12/21 04:09:18;;;;;;;;;;;0.80;87.40;;;-151.14;100.00;62537.16;5016435;28;19927;-80
2022/12/21 04:14:31;;;;;;;;;;;0.80;87.50;;;-0.57;100.00;62537.16;5016132;28;19927;-80
2022/12/21 04:16:59;;;;;;;;;;;0.80;87.60;;;-151.14;100.00;62537.16;5017351;28;19928;-80
2022/12/21 04:28:06;;;;;;;;;;;0.80;87.60;;;-151.14;100.00;62537.16;5019770;28;20205;-80
2022/12/21 04:30:33;;;;;;;;;;;0.80;87.60;;;-0.59;100.00;62537.16;5053525;28;19921;-80
2022/12/21 04:33:01;;;;;;;;;;;0.80;87.60;;;-151.14;100.00;62537.16;5052361;28;19921;-80
2022/12/21 04:35:30;;;;;;;;;;;0.80;87.60;;;-151.14;100.00;62537.16;5053018;28;20226;-80
2022/12/21 04:37:57;;;;;;;;;;;0.80;87.70;;;-0.62;100.00;62537.16;5053421;28;19927;-80
2022/12/21 04:40:25;;;;;;;;;;;0.80;87.40;;;-151.14;100.00;62537.16;5019395;28;19921;-80
2022/12/21 04:42:53;;;;;;;;;;;0.80;87.50;;;-151.14;100.00;62537.16;5052274;28;20231;-80
2022/12/21 04:45:21;;;;;;;;;;;0.80;87.50;;;-151.14;100.00;62537.16;5034951;28;20120;-80
2022/12/21 04:47:52;;;;;;;;;;;0.80;87.50;;;-151.14;100.00;62537.16;5035575;28;19927;-80
2022/12/21 04:50:20;;;;;;;;;;;0.80;87.50;;;-151.14;100.00;62537.16;5053300;28;20242;-80
2022/12/21 04:52:49;;;;;;;;;;;0.80;87.50;;;-151.14;100.00;62537.16;5035465;28;20212;-79
2022/12/21 04:55:17;;;;;;;;;;;0.80;87.70;;;-151.14;100.00;62537.16;5035204;28;19921;-79
2022/12/21 04:57:45;;;;;;;;;;;0.80;87.70;;;-151.14;100.00;62537.16;5052009;28;19927;-80
2022/12/21 05:00:14;;;;;;;;;;;0.80;87.60;;;-151.14;100.00;62537.16;5019070;28;19921;-80
2022/12/21 05:02:42;;;;;;;;;;;0.80;87.60;;;-151.14;100.00;62537.16;5051971;28;19921;-79
2022/12/21 05:05:10;;;;;;;;;;;0.80;87.70;;;-151.14;100.00;62537.16;5035271;28;19921;-80
2022/12/21 05:07:38;;;;;;;;;;;0.80;87.60;;;-151.14;100.00;62537.16;5035237;28;19921;-80
2022/12/21 05:10:09;;;;;;;;;;;0.80;87.60;;;-151.14;100.00;62537.16;5018901;28;19935;-80
2022/12/21 05:12:38;;;;;;;;;;;0.80;87.60;;;-151.14;100.00;62537.16;5035506;28;19921;-80
2022/12/21 05:15:07;;;;;;;;;;;0.80;87.70;;;-151.14;100.00;62537.16;5034855;28;19927;-80
2022/12/21 05:17:35;;;;;;;;;;;0.80;87.50;;;18.16;100.00;62537.16;5035364;28;20213;-80
2022/12/21 05:20:03;;;;;;;;;;;0.80;87.50;;;-151.14;100.00;62537.16;5035512;28;19953;-80
2022/12/21 05:22:31;;;;;;;;;;;0.80;87.60;;;-151.14;100.00;62537.16;5035262;28;20226;-80
2022/12/21 05:24:59;;;;;;;;;;;0.80;87.60;;;-151.14;100.00;62537.16;5018256;28;19990;-80
2022/12/21 05:27:29;;;;;;;;;;;0.80;87.50;;;-151.14;100.00;62537.16;5034546;28;19921;-80
2022/12/21 05:29:57;;;;;;;;;;;0.80;87.40;;;18.12;100.00;62537.16;5035334;28;19921;-80
2022/12/21 05:32:24;;;;;;;;;;;0.80;87.60;;;-151.14;100.00;62537.16;5052680;28;19921;-80
2022/12/21 05:34:52;;;;;;;;;;;0.80;87.50;;;-151.14;100.00;62537.16;5034510;28;19928;-80
2022/12/21 05:37:20;;;;;;;;;;;0.80;87.60;;;-151.14;100.00;62537.16;5052504;28;19966;-80
2022/12/21 05:39:48;;;;;;;;;;;0.80;87.50;;;-151.14;100.00;62537.16;5051562;28;19921;-80
2022/12/21 05:42:16;;;;;;;;;;;0.80;87.50;;;-0.66;100.00;62537.16;5051445;28;19920;-79
2022/12/21 05:44:45;;;;;;;;;;;0.80;87.50;;;-151.14;100.00;62537.16;5017877;28;19921;-80
2022/12/21 05:47:13;;;;;;;;;;;0.80;87.60;;;-151.14;100.00;62537.16;5034610;28;19928;-80
2022/12/21 05:49:41;;;;;;;;;;;0.80;88.40;;;-151.14;100.00;62537.16;5018241;28;19921;-79
2022/12/21 05:52:09;;;;;;;;;;;0.80;87.70;;;-151.14;100.00;62537.16;5018264;28;19942;-79
2022/12/21 05:54:37;;;;;;;;;;;0.80;87.60;;;-151.14;100.00;62537.16;5034235;28;20216;-80
2022/12/21 05:57:05;;;;;;;;;;;0.80;87.50;;;-151.14;100.00;62537.16;5052180;28;19927;-80
2022/12/21 05:59:33;;;;;;;;;;;0.80;87.60;;;-0.65;100.00;62537.16;5018284;28;19921;-80
2022/12/21 06:02:02;;;;;;;;;;;0.80;87.70;;;-151.14;100.00;62537.16;5034512;28;19927;-79
2022/12/21 06:04:30;;;;;;;;;;;0.80;88.40;;;-151.14;100.00;62537.16;5051028;28;19920;-80
2022/12/21 06:06:58;;;;;;;;;;;0.80;87.80;;;-151.14;100.00;62537.16;5017618;28;19928;-80
2022/12/21 06:09:26;;;;;;;;;;;0.80;87.60;;;-151.14;100.00;62537.16;5034443;28;19928;-79
2022/12/21 06:11:54;;;;;;;;;;;0.80;87.60;;;-151.14;100.00;62537.16;5034351;28;19928;-80
2022/12/21 06:14:22;;;;;;;;;;;0.80;87.60;;;-0.67;100.00;62537.16;5050628;28;19921;-80
2022/12/21 06:16:50;;;;;;;;;;;0.80;87.60;;;-151.14;100.00;62537.16;5034062;28;19921;-80
2022/12/21 06:19:19;;;;;;;;;;;0.80;87.60;;;-151.14;100.00;62537.16;5034270;28;20116;-79
2022/12/21 06:21:47;;;;;;;;;;;0.80;87.60;;;-151.14;100.00;62537.16;5017942;28;20205;-80
2022/12/21 06:24:15;;;;;;;;;;;0.80;87.60;;;-151.14;100.00;62537.16;5051726;28;19927;-80
2022/12/21 06:26:43;;;;;;;;;;;0.80;87.60;;;-151.14;100.00;62537.16;5017298;28;19921;-80
2022/12/21 06:29:11;;;;;;;;;;;0.80;87.50;;;-151.14;100.00;62537.16;5034271;28;19921;-80
2022/12/21 06:31:39;;;;;;;;;;;0.90;87.50;;;-151.14;100.00;62537.16;5034204;28;19921;-80
2022/12/21 06:34:07;;;;;;;;;;;0.90;87.50;;;-151.14;100.00;62537.16;5017437;28;20217;-80
2022/12/21 06:36:36;;;;;;;;;;;0.90;87.30;;;-151.14;100.00;62537.16;5033855;28;20101;-80
2022/12/21 06:39:04;;;;;;;;;;;0.90;87.30;;;-151.14;100.00;62537.16;5032991;28;19925;-80
2022/12/21 06:41:32;;;;;;;;;;;0.90;87.20;;;-151.14;100.00;62537.16;5017793;28;19928;-80
2022/12/21 06:44:00;;;;;;;;;;;0.90;87.20;;;-151.14;100.00;62537.16;5051495;28;19921;-80
2022/12/21 06:46:28;;;;;;;;;;;1.00;87.10;;;-151.14;100.00;62537.16;5051221;28;20111;-80
2022/12/21 06:48:56;;;;;;;;;;;1.00;87.10;;;-151.14;100.00;62537.16;5051620;28;20234;-80
2022/12/21 06:51:24;;;;;;;;;;;1.00;87.00;;;18.16;100.00;62537.16;5017444;28;19943;-80
2022/12/21 06:53:53;;;;;;;;;;;1.00;86.90;;;-151.14;100.00;62537.16;5051169;28;19921;-80
2022/12/21 06:56:23;;;;;;;;;;;1.00;87.00;;;-151.14;100.00;62537.16;5017183;28;19921;-81
2022/12/21 06:58:53;;;;;;;;;;;1.00;87.00;;;-151.14;100.00;62537.16;5033591;28;19921;-80
2022/12/21 07:01:21;;;;;;;;;;;1.00;86.90;;;-151.14;100.00;62537.16;5017277;28;19921;-80
2022/12/21 07:03:49;;;;;;;;;;;1.10;86.90;;;-151.14;100.00;62537.16;5017036;28;19927;-80
2022/12/21 07:06:18;;;;;;;;;;;1.10;87.00;;;18.12;100.00;62537.16;5033262;28;19943;-80
2022/12/21 07:08:47;;;;;;;;;;;1.10;86.80;;;-0.29;100.00;62537.16;5033630;28;20241;-80
2022/12/21 07:11:17;;;;;;;;;;;1.10;86.80;;;-151.14;100.00;62537.16;5051274;28;19920;-80
2022/12/21 07:13:46;;;;;;;;;;;1.10;86.70;;;-151.14;100.00;62537.16;5016888;28;20143;-80
2022/12/21 07:16:14;;;;;;;;;;;1.10;86.70;;;-151.14;100.00;62537.16;5033294;28;20328;-80
2022/12/21 07:18:42;;;;;;;;;;;1.20;86.60;;;-151.14;100.00;62537.16;5033496;28;19921;-80
2022/12/21 07:21:12;;;;;;;;;;;1.20;86.50;;;-0.23;100.00;62537.16;5033366;28;19921;-80
2022/12/21 07:23:40;;;;;;;;;;;1.20;86.40;;;-0.22;100.00;62537.16;5049717;28;19927;-80
2022/12/21 07:26:09;;;;;;;;;;;1.20;86.40;;;-151.14;100.00;62537.16;5033200;28;19940;-80
2022/12/21 07:28:38;;;;;;;;;;;1.20;86.30;;;-151.14;100.00;62537.16;5033305;28;19927;-81
2022/12/21 07:31:07;;;;;;;;;;;1.20;86.20;;;-151.14;100.00;62537.16;5016938;28;19921;-80
2022/12/21 07:33:35;;;;;;;;;;;1.30;86.20;;;-151.14;100.00;62537.16;5050725;28;19927;-81
2022/12/21 07:36:04;;;;;;;;;;;1.30;86.10;;;-0.12;100.00;62537.16;5032936;28;19921;-80
2022/12/21 07:38:32;;;;;;;;;;;1.30;86.20;;;-151.14;100.00;62537.16;5049604;28;19927;-80
2022/12/21 07:41:00;;;;;;;;;;;1.30;86.20;;;-151.14;100.00;62537.16;5051043;28;19927;-80
2022/12/21 07:43:28;;;;;;;;;;;1.30;86.30;;;18.10;100.00;62537.16;5049487;28;19931;-81
2022/12/21 07:46:12;;;;;;;;;;;1.40;86.10;;;-151.14;100.00;62537.16;5015666;28;19921;-81
2022/12/21 07:48:40;;;;;;;;;;;1.40;86.00;;;-151.14;100.00;62537.16;5016732;28;19927;-81
2022/12/21 07:51:08;;;;;;;;;;;1.40;85.90;;;-151.14;100.00;62537.16;5034700;28;20244;-80
2022/12/21 07:53:36;;;;;;;;;;;1.50;85.90;;;-151.14;100.00;62537.16;5054065;28;19927;-81
2022/12/21 07:56:05;;;;;;;;;;;1.50;85.80;;;-151.14;100.00;62537.16;5006601;28;19921;-81
2022/12/21 07:58:34;;;;;;;;;;;1.50;85.70;;;-151.14;100.00;62537.16;5000239;28;20000;-81
2022/12/21 08:01:05;;;;;;;;;;;1.50;85.50;;;0.24;100.00;62537.16;5016581;28;19921;-81
2022/12/21 08:03:35;;;;;;;;;;;1.60;85.40;;;-151.14;100.00;62537.16;5016406;28;19925;-81
2022/12/21 08:06:03;;;;;;;;;;;1.60;85.20;;;-151.14;100.00;62537.16;4999901;28;20247;-80
2022/12/21 08:08:31;;;;;;;;;;;1.60;85.10;;;-151.14;100.00;62537.16;5016626;28;19992;-81
2022/12/21 08:10:59;;;;;;;;;;;1.70;85.10;;;-151.14;100.00;62537.16;5010343;28;19921;-81
2022/12/21 08:13:27;;;;;;;;;;;1.70;85.00;;;-151.14;100.00;62537.16;5036032;28;19943;-81
2022/12/21 08:16:00;;;;;;;;;;;1.70;84.90;;;-151.14;100.00;62537.16;5053379;28;20120;-80
2022/12/21 08:18:28;;;;;;;;;;;1.80;84.80;;;-151.14;100.00;62537.16;5036377;28;19927;-80
2022/12/21 08:20:57;;;;;;;;;;;1.80;84.70;;;0.39;100.00;62537.16;5019596;28;19927;-81
2022/12/21 08:23:25;;;;;;;;;;;1.80;84.40;;;-151.14;100.00;62537.16;5019525;28;19921;-80
2022/12/21 08:25:53;;;;;;;;;;;1.80;84.40;;;0.43;100.00;62537.16;5035561;28;20467;-80
2022/12/21 08:28:21;;;;;;;;;;;1.90;84.50;;;-151.14;100.00;62537.16;5019527;28;19921;-80
2022/12/21 08:30:49;;;;;;;;;;;1.90;84.60;;;0.48;100.00;62537.16;5019339;28;19921;-81
2022/12/21 08:33:17;;;;;;;;;;;1.90;84.50;;;-151.14;100.00;62537.16;5019336;28;19927;-80
2022/12/21 08:35:45;;;;;;;;;;;1.90;84.50;;;-151.14;100.00;62537.16;5035664;28;20231;-81
2022/12/21 08:38:14;;;;;;;;;;;1.90;84.40;;;-151.14;100.00;62537.16;5053518;28;20234;-80
2022/12/21 08:40:43;;;;;;;;;;;1.90;84.30;;;-151.14;100.00;62537.16;5052251;28;20097;-80
2022/12/21 08:43:11;;;;;;;;;;;1.80;84.00;;;-151.14;100.00;62537.16;5019374;28;19921;-80
2022/12/21 08:45:39;;;;;;;;;;;1.80;84.20;;;0.30;100.00;62537.16;5035398;28;19921;-80
2022/12/21 08:48:07;;;;;;;;;;;1.70;84.20;;;-151.14;100.00;62537.16;5035922;28;19921;-80
2022/12/21 08:50:35;;;;;;;;;;;1.70;84.30;;;-151.14;100.00;62537.16;5019156;28;19943;-79
2022/12/21 08:53:03;;;;;;;;;;;1.70;84.40;;;0.24;100.00;62537.16;5019184;28;19943;-80
2022/12/21 08:55:33;;;;;;;;;;;1.70;84.40;;;-151.14;100.00;62537.16;5034506;28;19928;-80
2022/12/21 08:58:01;;;;;;;;;;;1.60;84.30;;;-151.14;100.00;62537.16;5018957;28;19943;-80
2022/12/21 09:00:29;;;;;;;;;;;1.60;84.40;;;-151.14;100.00;62537.16;5018963;28;19927;-80
2022/12/21 09:02:57;;;;;;;;;;;1.60;84.40;;;-151.14;100.00;62537.16;5034727;28;20123;-80
2022/12/21 09:05:24;;;;;;;;;;;1.60;84.50;;;-151.14;100.00;62537.16;5034856;28;19921;-80
2022/12/21 09:07:52;;;;;;;;;;;1.50;84.50;;;-151.14;100.00;62537.16;5018966;28;19921;-80
2022/12/21 09:10:20;;;;;;;;;;;1.50;84.60;;;-151.14;100.00;62537.16;5035189;28;19921;-80
2022/12/21 09:12:50;;;;;;;;;;;1.50;84.70;;;-151.14;100.00;62537.16;5019006;28;20010;-80
2022/12/21 09:15:17;;;;;;;;;;;1.50;84.90;;;-151.14;100.00;62537.16;5050944;28;19920;-80
2022/12/21 09:17:46;;;;;;;;;;;1.40;84.90;;;-151.14;100.00;62537.16;5052869;28;19921;-80
2022/12/21 09:20:13;;;;;;;;;;;1.40;85.00;;;18.09;100.00;62537.16;5018700;28;19927;-80
2022/12/21 09:22:41;;;;;;;;;;;1.40;85.00;;;-151.14;100.00;62537.16;5052883;28;19921;-80
2022/12/21 09:25:10;;;;;;;;;;;1.40;85.10;;;-151.14;100.00;62537.16;5034404;28;20221;-80
2022/12/21 09:27:38;;;;;;;;;;;1.40;85.20;;;-151.14;100.00;62537.16;5018633;28;19921;-80
2022/12/21 09:30:08;;;;;;;;;;;1.40;85.30;;;-151.14;100.00;62537.16;5018385;28;19927;-79
2022/12/21 09:32:36;;;;;;;;;;;1.30;85.30;;;-0.12;100.00;62537.16;5035143;28;19927;-80
2022/12/21 09:35:05;;;;;;;;;;;1.30;85.30;;;-151.14;100.00;62537.16;5034176;28;19928;-80
2022/12/21 09:37:33;;;;;;;;;;;1.30;86.20;;;-151.14;100.00;62537.16;5034844;28;19920;-80
2022/12/21 09:40:01;;;;;;;;;;;1.30;85.40;;;18.16;100.00;62537.16;5034833;28;19927;-80
2022/12/21 09:42:34;;;;;;;;;;;1.30;85.30;;;-151.14;100.00;62537.16;5034811;28;19927;-79
2022/12/21 09:45:15;;;;;;;;;;;1.30;85.30;;;-151.14;100.00;62537.16;5034253;28;19927;-80
2022/12/21 09:47:45;;;;;;;;;;;1.30;85.30;;;-0.16;100.00;62537.16;5018251;28;19931;-80
2022/12/21 09:50:16;;;;;;;;;;;1.30;85.40;;;-0.16;100.00;62537.16;5018255;28;19921;-80
2022/12/21 09:52:46;;;;;;;;;;;1.30;85.50;;;-151.14;100.00;62537.16;5007276;28;19921;-80
2022/12/21 09:55:39;;;;;;;;;;;1.30;85.50;;;-151.14;100.00;62537.16;5014294;28;19921;-79
2022/12/21 09:58:14;;;;;;;;;;;1.30;85.50;;;-151.14;100.00;62537.16;4998723;28;19921;-80
2022/12/21 10:00:45;;;;;;;;;;;1.30;85.50;;;-0.13;100.00;62537.16;5014865;28;19935;-79
2022/12/21 10:03:49;;;;;;;;;;;1.30;85.40;;;-151.14;100.00;62537.16;5014615;28;19928;-80
2022/12/21 10:06:26;;;;;;;;;;;1.30;85.40;;;-151.14;100.00;62537.16;5011850;28;19921;-80
2022/12/21 10:09:09;;;;;;;;;;;1.40;85.40;;;-151.14;100.00;62537.16;4998491;28;20116;-80
2022/12/21 10:11:44;;;;;;;;;;;1.40;85.20;;;-151.14;100.00;62537.16;4998271;28;19929;-80
2022/12/21 10:14:18;;;;;;;;;;;1.50;85.20;;;-151.14;100.00;62537.16;4994797;28;19921;-80
2022/12/21 10:16:50;;;;;;;;;;;1.50;85.00;;;-151.14;100.00;62537.16;4978386;28;19922;-80
2022/12/21 10:19:21;;;;;;;;;;;1.50;84.80;;;-151.14;100.00;62537.16;4995029;28;19928;-80
2022/12/21 10:21:53;;;;;;;;;;;1.60;85.40;;;-151.14;100.00;62537.16;4978889;28;19928;-80
2022/12/21 10:24:23;;;;;;;;;;;1.60;84.40;;;-151.14;100.00;62537.16;5012120;28;19921;-80
2022/12/21 10:26:54;;;;;;;;;;;1.60;84.30;;;-151.14;100.00;62537.16;4994599;28;19928;-80
2022/12/21 10:29:24;;;;;;;;;;;1.60;84.30;;;-151.14;100.00;62537.16;4978577;28;19922;-80
2022/12/21 10:31:53;;;;;;;;;;;1.60;84.10;;;-151.14;100.00;62537.16;4994708;28;19921;-80
2022/12/21 10:34:24;;;;;;;;;;;1.60;84.10;;;-151.14;100.00;62537.16;4994607;28;20116;-80
2022/12/21 10:36:55;;;;;;;;;;;1.60;84.00;;;-151.14;100.00;62537.16;4994377;28;19928;-79
2022/12/21 10:39:23;;;;;;;;;;;1.70;84.00;;;18.12;100.00;62537.16;4978694;28;19921;-80
2022/12/21 10:41:53;;;;;;;;;;;1.60;83.90;;;-151.14;100.00;62537.16;4994617;28;19928;-80
2022/12/21 10:44:20;;;;;;;;;;;1.70;84.00;;;-151.14;100.00;62537.16;4994397;28;19928;-80
2022/12/21 10:46:50;;;;;;;;;;;1.70;84.00;;;-151.14;100.00;62537.16;4993706;28;20295;-80
2022/12/21 10:49:24;;;;;;;;;;;1.70;84.00;;;0.20;100.00;62537.16;4978339;28;19928;-80
2022/12/21 10:51:52;;;;;;;;;;;1.70;84.00;;;-151.14;100.00;62537.16;4978464;28;19922;-80
2022/12/21 10:54:25;;;;;;;;;;;1.70;83.90;;;-151.14;100.00;62537.16;5011696;28;20132;-79
2022/12/21 10:56:53;;;;;;;;;;;1.70;83.90;;;-151.14;100.00;62537.16;4977850;28;20132;-79
2022/12/21 11:03:22;;;;;;;;;;;1.70;83.90;;;-151.14;100.00;62537.16;5051365;28;20081;-79
2022/12/21 11:06:22;;;;;;;;;;;1.60;83.80;;;-151.14;100.00;62537.16;5032796;28;19927;-80
2022/12/21 11:09:32;;;;;;;;;;;1.60;83.80;;;-151.14;100.00;62537.16;4954815;28;19922;-80
2022/12/21 11:12:20;;;;;;;;;;;1.60;83.90;;;-151.14;100.00;62537.16;4954967;28;19928;-79
2022/12/21 11:14:48;;;;;;;;;;;1.60;83.80;;;-151.14;100.00;62537.16;4954260;28;19929;-79
2022/12/21 11:17:21;;;;;;;;;;;1.60;83.80;;;-151.14;100.00;62537.16;4983176;28;20231;-80
2022/12/21 11:19:50;;;;;;;;;;;1.60;83.80;;;-151.14;100.00;62537.16;5049849;28;19927;-80
2022/12/21 11:22:27;;;;;;;;;;;1.60;83.90;;;-151.14;100.00;62537.16;5017019;28;20213;-80
2022/12/21 11:24:56;;;;;;;;;;;1.60;83.80;;;-151.14;100.00;62537.16;5016681;28;19921;-79
2022/12/21 11:27:39;;;;;;;;;;;1.60;83.80;;;-151.14;100.00;62537.16;5053458;28;19921;-79
2022/12/21 11:30:41;;;;;;;;;;;1.60;83.70;;;-151.14;100.00;62537.16;5037019;28;19927;-79
2022/12/21 11:33:22;;;;;;;;;;;1.60;83.90;;;-151.14;100.00;62537.16;5020257;28;19927;-79
2022/12/21 11:39:31;;;;;;;;;;;1.50;83.90;;;-151.14;100.00;62537.16;4991758;28;20231;-80
2022/12/21 11:41:59;;;;;;;;;;;1.50;84.00;;;-151.14;100.00;62537.16;5020456;28;19943;-79